Time;durP1;ratioP1;P1;durP2;ratioP2;P2;SDS_P1;SDS_P2;PMS_P1;PMS_P2;Temp;Humidity;BMP_temperature;BMP_pressure;BME280_temperature;BME280_humidity;BME280_pressure;Samples;Min_cycle;Max_cycle;Signal;HPM_P1;HPM_P2
2023/05/04 00:00:01;;;;;;;78.00;57.58;;;9.80;71.40;;;;;;5000686;28;115407;-86
2023/05/04 00:02:31;;;;;;;72.97;51.03;;;9.70;71.30;;;;;;4983918;28;117044;-86
2023/05/04 00:04:58;;;;;;;80.15;55.75;;;9.80;71.10;;;;;;5001748;28;114512;-86
2023/05/04 00:07:25;;;;;;;61.75;47.22;;;9.70;71.10;;;;;;5000265;28;114486;-86
2023/05/04 00:09:52;;;;;;;63.80;47.67;;;9.70;71.00;;;;;;4994936;28;116512;-86
2023/05/04 00:12:20;;;;;;;68.65;51.75;;;9.70;70.90;;;;;;4997527;28;114648;-86
2023/05/04 00:14:47;;;;;;;72.13;51.63;;;9.80;70.70;;;;;;5002583;28;114494;-84
2023/05/04 00:17:14;;;;;;;63.78;45.72;;;9.70;70.80;;;;;;4985703;28;114684;-84
2023/05/04 00:19:43;;;;;;;106.07;69.82;;;9.70;71.00;;;;;;5001200;28;117756;-85
2023/05/04 00:22:10;;;;;;;113.53;71.47;;;9.70;71.20;;;;;;5002688;28;114824;-85
2023/05/04 00:24:38;;;;;;;65.65;48.58;;;9.70;71.30;;;;;;5002201;28;114586;-85
2023/05/04 00:27:05;;;;;;;62.30;44.97;;;9.70;71.20;;;;;;5003635;28;114460;-84
2023/05/04 00:29:33;;;;;;;89.72;58.15;;;9.70;71.30;;;;;;4986051;28;115010;-85
2023/05/04 00:32:01;;;;;;;68.07;48.53;;;9.70;71.30;;;;;;5001712;28;114848;-85
2023/05/04 00:34:29;;;;;;;68.65;49.17;;;9.70;71.40;;;;;;5001082;28;114509;-86
2023/05/04 00:36:57;;;;;;;78.28;51.92;;;9.70;71.40;;;;;;5003438;28;114611;-85
2023/05/04 00:39:24;;;;;;;75.68;50.08;;;9.70;71.40;;;;;;5002296;28;114929;-86
2023/05/04 00:41:51;;;;;;;71.85;48.05;;;9.70;71.30;;;;;;5002206;28;116378;-85
2023/05/04 00:44:19;;;;;;;68.65;50.45;;;9.70;71.20;;;;;;5019869;28;114379;-86
2023/05/04 00:46:46;;;;;;;69.05;48.88;;;9.70;71.00;;;;;;5004804;28;114268;-85
2023/05/04 00:49:15;;;;;;;66.57;46.85;;;9.80;70.90;;;;;;5002272;28;114310;-86
2023/05/04 00:51:43;;;;;;;74.45;49.35;;;9.70;70.70;;;;;;5015303;28;115492;-85
2023/05/04 00:54:10;;;;;;;80.50;55.58;;;9.80;70.60;;;;;;5002790;28;114438;-85
2023/05/04 00:56:41;;;;;;;66.72;46.80;;;9.80;70.50;;;;;;4983055;28;115748;-85
2023/05/04 00:59:08;;;;;;;75.30;51.67;;;9.80;70.70;;;;;;5002628;28;114920;-86
2023/05/04 01:01:35;;;;;;;65.32;47.97;;;9.80;70.70;;;;;;5018463;28;115158;-85
2023/05/04 01:04:03;;;;;;;71.63;51.72;;;9.70;70.80;;;;;;5003627;28;114452;-86
2023/05/04 01:06:58;;;;;;;79.05;53.80;;;9.70;71.00;;;;;;4983381;28;114477;-85
2023/05/04 01:09:28;;;;;;;70.72;50.58;;;9.80;71.00;;;;;;4996729;28;117594;-84
2023/05/04 01:12:16;;;;;;;74.65;50.50;;;9.70;71.30;;;;;;5003329;28;114768;-86
2023/05/04 01:14:44;;;;;;;79.25;51.58;;;9.70;71.30;;;;;;5017720;28;118264;-86
2023/05/04 01:17:12;;;;;;;77.65;53.88;;;9.70;71.40;;;;;;5001248;28;114649;-86
2023/05/04 01:19:39;;;;;;;64.50;45.85;;;9.60;71.60;;;;;;5002140;28;116033;-86
2023/05/04 01:22:06;;;;;;;68.63;47.67;;;9.60;71.80;;;;;;5019723;28;114529;-84
2023/05/04 01:24:33;;;;;;;67.70;48.22;;;9.60;71.90;;;;;;5010222;28;114220;-85
2023/05/04 01:27:10;;;;;;;71.68;48.58;;;9.50;72.10;;;;;;5021061;28;114526;-86
2023/05/04 01:29:41;;;;;;;72.25;49.05;;;9.60;72.30;;;;;;4984922;28;115247;-85
2023/05/04 01:32:09;;;;;;;67.25;45.97;;;9.50;72.10;;;;;;5018133;28;114925;-86
2023/05/04 01:34:36;;;;;;;69.18;46.03;;;9.50;72.30;;;;;;4985893;28;114335;-87
2023/05/04 01:37:03;;;;;;;70.32;47.90;;;9.40;72.40;;;;;;5001937;28;114442;-84
2023/05/04 01:39:30;;;;;;;70.22;46.78;;;9.40;72.40;;;;;;5018273;28;114934;-83
2023/05/04 01:41:58;;;;;;;75.55;48.10;;;9.40;72.60;;;;;;5002058;28;114700;-84
2023/05/04 01:44:25;;;;;;;78.00;49.67;;;9.40;72.60;;;;;;4985692;28;114503;-85
2023/05/04 01:46:52;;;;;;;81.75;50.67;;;9.20;72.80;;;;;;5001839;28;114653;-84
2023/05/04 01:49:21;;;;;;;83.00;49.42;;;9.20;73.00;;;;;;5017823;28;115645;-85
2023/05/04 01:51:49;;;;;;;77.50;46.05;;;9.20;73.10;;;;;;5017673;28;114606;-84
2023/05/04 01:54:16;;;;;;;86.15;47.60;;;9.20;73.30;;;;;;4982773;28;114340;-85
2023/05/04 01:56:43;;;;;;;79.57;47.97;;;9.20;73.50;;;;;;5018323;28;114531;-86
2023/05/04 01:59:11;;;;;;;79.32;47.28;;;9.20;73.50;;;;;;5001769;28;114940;-86
2023/05/04 02:01:40;;;;;;;80.22;46.80;;;9.20;73.60;;;;;;5007035;28;115271;-84
2023/05/04 02:04:09;;;;;;;88.22;49.28;;;9.20;73.60;;;;;;5006140;28;114545;-85
2023/05/04 02:06:38;;;;;;;77.38;46.05;;;9.20;73.50;;;;;;5004524;28;114514;-83
2023/05/04 02:09:05;;;;;;;82.68;48.33;;;9.20;73.60;;;;;;5003324;28;115026;-84
2023/05/04 02:11:32;;;;;;;69.13;43.75;;;9.20;73.50;;;;;;5003556;28;116060;-84
2023/05/04 02:14:00;;;;;;;70.85;43.38;;;9.20;73.50;;;;;;5006931;28;114562;-84
2023/05/04 02:16:27;;;;;;;70.43;43.70;;;9.20;73.50;;;;;;5002657;28;115743;-84
2023/05/04 02:18:55;;;;;;;66.78;41.80;;;9.10;73.70;;;;;;5001895;28;115700;-84
2023/05/04 02:21:22;;;;;;;65.75;41.13;;;9.10;73.60;;;;;;5001782;28;114815;-84
2023/05/04 02:23:50;;;;;;;65.30;42.08;;;9.00;73.70;;;;;;5003965;28;114470;-84
2023/05/04 02:26:17;;;;;;;62.70;42.03;;;9.00;73.90;;;;;;5002440;28;114363;-85
2023/05/04 02:28:44;;;;;;;62.75;42.17;;;9.00;73.90;;;;;;5001940;28;115022;-84
2023/05/04 02:31:11;;;;;;;65.68;40.65;;;9.00;73.90;;;;;;5001965;28;114866;-84
2023/05/04 02:33:38;;;;;;;60.38;39.67;;;9.10;73.90;;;;;;5002636;28;114644;-84
2023/05/04 02:36:07;;;;;;;63.13;39.22;;;9.10;73.80;;;;;;5002203;28;114385;-85
2023/05/04 02:38:35;;;;;;;62.20;39.00;;;9.10;73.60;;;;;;4997219;28;117476;-86
2023/05/04 02:41:02;;;;;;;64.25;40.45;;;9.10;73.60;;;;;;5002521;28;115181;-85
2023/05/04 02:43:30;;;;;;;56.60;39.78;;;9.20;73.60;;;;;;5003475;28;119299;-87
2023/05/04 02:45:58;;;;;;;57.80;38.00;;;9.20;73.60;;;;;;5002670;28;114880;-86
2023/05/04 02:48:25;;;;;;;56.42;38.08;;;9.20;73.50;;;;;;5002258;28;115309;-86
2023/05/04 02:50:53;;;;;;;57.45;39.17;;;9.20;73.30;;;;;;4984444;28;115010;-86
2023/05/04 02:53:20;;;;;;;57.10;36.63;;;9.20;73.20;;;;;;5002248;28;114480;-86
2023/05/04 02:55:47;;;;;;;59.38;37.42;;;9.20;73.30;;;;;;5018670;28;114481;-84
2023/05/04 02:58:14;;;;;;;61.50;42.75;;;9.10;73.40;;;;;;5000318;28;115886;-84
2023/05/04 03:00:41;;;;;;;63.33;42.08;;;9.10;73.40;;;;;;5000852;28;120020;-84
2023/05/04 03:03:09;;;;;;;58.47;37.95;;;9.10;73.40;;;;;;5001949;28;114316;-85
2023/05/04 03:05:36;;;;;;;57.42;37.67;;;9.00;73.40;;;;;;5001906;28;114405;-84
2023/05/04 03:08:04;;;;;;;59.30;37.35;;;9.00;73.40;;;;;;5017530;28;115035;-84
2023/05/04 03:10:31;;;;;;;53.75;35.40;;;9.10;73.40;;;;;;5001523;28;114753;-84
2023/05/04 03:13:02;;;;;;;56.65;36.45;;;9.00;73.40;;;;;;5001331;28;114703;-84
2023/05/04 03:15:32;;;;;;;60.20;40.72;;;9.10;73.40;;;;;;5001523;28;114368;-84
2023/05/04 03:18:05;;;;;;;69.88;44.17;;;9.10;73.50;;;;;;5001683;28;114896;-83
2023/05/04 03:20:34;;;;;;;67.82;45.03;;;9.20;73.50;;;;;;5024812;28;116082;-84
2023/05/04 03:23:02;;;;;;;66.05;42.78;;;9.20;73.50;;;;;;5006574;28;114436;-84
2023/05/04 03:25:29;;;;;;;63.85;40.40;;;9.20;73.40;;;;;;5002427;28;114663;-86
2023/05/04 03:27:57;;;;;;;62.78;40.08;;;9.20;73.20;;;;;;5000203;28;114843;-86
2023/05/04 03:30:25;;;;;;;63.80;42.42;;;9.20;73.10;;;;;;4983284;28;117122;-84
2023/05/04 03:32:55;;;;;;;62.03;41.33;;;9.20;73.20;;;;;;4984939;28;114490;-85
2023/05/04 03:35:23;;;;;;;67.00;42.38;;;9.20;73.30;;;;;;5000885;28;116991;-84
2023/05/04 03:37:53;;;;;;;63.85;39.75;;;9.20;73.20;;;;;;4999948;28;114945;-85
2023/05/04 03:40:22;;;;;;;62.63;39.88;;;9.20;73.00;;;;;;4998944;28;117496;-84
2023/05/04 03:42:52;;;;;;;62.35;38.75;;;9.20;73.10;;;;;;5000923;28;115108;-83
2023/05/04 03:45:21;;;;;;;64.65;41.55;;;9.10;73.10;;;;;;5001217;28;115230;-85
2023/05/04 03:47:48;;;;;;;60.92;40.05;;;9.00;73.20;;;;;;4999628;28;114998;-86
2023/05/04 03:50:15;;;;;;;63.53;39.72;;;8.90;73.20;;;;;;4999738;28;114602;-85
2023/05/04 03:52:42;;;;;;;65.15;38.47;;;8.90;73.30;;;;;;5016495;28;114650;-85
2023/05/04 03:55:10;;;;;;;59.63;38.47;;;8.80;73.40;;;;;;5000399;28;114325;-86
2023/05/04 03:57:38;;;;;;;65.00;44.08;;;8.80;73.70;;;;;;5016175;28;115359;-86
2023/05/04 04:00:05;;;;;;;59.80;39.95;;;8.80;73.70;;;;;;4999331;28;114801;-85
2023/05/04 04:02:40;;;;;;;63.25;40.40;;;9.00;73.70;;;;;;5001462;28;114651;-86
2023/05/04 04:05:15;;;;;;;61.15;39.47;;;9.00;73.40;;;;;;4984582;28;114398;-86
2023/05/04 04:07:42;;;;;;;58.13;38.13;;;8.90;73.40;;;;;;4999142;28;116895;-86
2023/05/04 04:10:09;;;;;;;57.42;35.17;;;8.90;73.60;;;;;;4999819;28;114765;-86
2023/05/04 04:12:37;;;;;;;64.30;39.33;;;8.90;73.50;;;;;;4966615;28;114675;-85
2023/05/04 04:15:05;;;;;;;55.45;37.17;;;8.90;73.60;;;;;;5001226;28;114357;-85
2023/05/04 04:17:32;;;;;;;57.13;37.88;;;8.90;73.70;;;;;;4997878;28;114909;-86
2023/05/04 04:20:00;;;;;;;57.10;36.13;;;8.80;73.70;;;;;;5015472;28;114752;-86
2023/05/04 04:22:27;;;;;;;51.83;34.45;;;8.90;73.60;;;;;;5000746;28;114504;-86
2023/05/04 04:24:57;;;;;;;57.10;36.45;;;9.00;73.50;;;;;;5002958;28;114638;-85
2023/05/04 04:27:25;;;;;;;63.42;40.50;;;8.90;73.50;;;;;;5005993;28;114964;-85
2023/05/04 04:29:52;;;;;;;57.67;38.97;;;8.90;73.50;;;;;;5004631;28;115228;-86
2023/05/04 04:32:21;;;;;;;51.30;33.38;;;8.80;73.70;;;;;;4983074;28;117462;-87
2023/05/04 04:34:48;;;;;;;64.50;40.75;;;8.80;73.80;;;;;;5001374;28;114433;-84
2023/05/04 04:37:15;;;;;;;52.17;34.05;;;8.90;73.70;;;;;;5005688;28;114877;-85
2023/05/04 04:39:42;;;;;;;60.20;36.95;;;9.00;73.60;;;;;;5007404;28;117503;-86
2023/05/04 04:42:10;;;;;;;51.85;34.60;;;9.00;73.50;;;;;;5000263;28;114415;-86
2023/05/04 04:44:39;;;;;;;55.40;36.03;;;9.00;73.30;;;;;;5000891;28;114468;-86
2023/05/04 04:47:07;;;;;;;53.17;33.10;;;9.00;73.20;;;;;;4980601;28;114903;-86
2023/05/04 04:49:34;;;;;;;50.90;32.85;;;8.90;73.30;;;;;;4988864;28;114840;-87
2023/05/04 04:52:01;;;;;;;54.67;32.53;;;9.00;73.30;;;;;;4998913;28;114751;-86
2023/05/04 04:54:28;;;;;;;51.80;32.22;;;8.90;73.20;;;;;;5015802;28;114420;-85
2023/05/04 04:56:56;;;;;;;48.65;30.73;;;8.90;73.10;;;;;;4998569;28;114850;-85
2023/05/04 04:59:23;;;;;;;50.95;32.65;;;8.90;73.20;;;;;;5015485;27;114694;-85
2023/05/04 05:01:51;;;;;;;53.50;33.58;;;8.90;73.30;;;;;;5003562;28;114701;-84
2023/05/04 05:04:18;;;;;;;51.28;33.22;;;8.80;73.40;;;;;;5003676;28;114234;-83
2023/05/04 05:06:48;;;;;;;56.92;34.40;;;8.80;73.50;;;;;;5000468;28;116058;-83
2023/05/04 05:09:16;;;;;;;55.17;34.00;;;8.80;73.70;;;;;;5000829;28;114710;-86
2023/05/04 05:11:43;;;;;;;60.90;36.67;;;9.00;73.70;;;;;;5000901;28;114709;-86
2023/05/04 05:14:12;;;;;;;50.30;31.83;;;9.00;73.50;;;;;;5001763;28;116078;-84
2023/05/04 05:16:39;;;;;;;53.53;33.53;;;9.00;73.50;;;;;;5017664;28;115108;-84
2023/05/04 05:19:06;;;;;;;57.03;34.67;;;9.10;73.50;;;;;;5003716;28;114568;-85
2023/05/04 05:21:34;;;;;;;55.85;34.67;;;9.20;73.40;;;;;;5016561;28;114491;-85
2023/05/04 05:24:01;;;;;;;59.22;35.97;;;9.30;73.10;;;;;;5024411;28;114288;-85
2023/05/04 05:26:29;;;;;;;51.33;32.13;;;9.30;73.00;;;;;;5006670;28;115484;-86
2023/05/04 05:28:56;;;;;;;52.15;33.42;;;9.30;72.60;;;;;;5005620;28;114765;-85
2023/05/04 05:31:23;;;;;;;51.53;32.53;;;9.30;72.30;;;;;;5003864;28;114496;-86
2023/05/04 05:33:51;;;;;;;47.65;31.10;;;9.20;72.20;;;;;;5002832;28;114619;-85
2023/05/04 05:36:20;;;;;;;48.50;33.00;;;9.30;72.20;;;;;;5002379;28;116016;-85
2023/05/04 05:38:48;;;;;;;47.20;33.15;;;9.30;72.30;;;;;;4985248;28;115843;-86
2023/05/04 05:41:16;;;;;;;49.25;32.75;;;9.30;72.20;;;;;;5005382;28;114508;-86
2023/05/04 05:43:43;;;;;;;49.22;33.08;;;9.40;72.20;;;;;;5004152;28;114567;-86
2023/05/04 05:46:10;;;;;;;49.17;32.40;;;9.50;72.00;;;;;;4986129;28;115022;-86
2023/05/04 05:48:38;;;;;;;44.92;31.08;;;9.60;71.80;;;;;;5003392;28;115120;-87
2023/05/04 05:51:05;;;;;;;48.00;33.03;;;9.70;71.50;;;;;;5003835;28;114188;-87
2023/05/04 05:53:32;;;;;;;50.40;33.47;;;9.80;71.40;;;;;;5003904;28;114509;-87
2023/05/04 05:55:59;;;;;;;45.67;32.22;;;9.90;71.30;;;;;;5002212;28;114931;-86
2023/05/04 05:58:27;;;;;;;47.00;31.08;;;10.00;70.90;;;;;;5018129;28;114732;-87
2023/05/04 06:00:56;;;;;;;47.33;33.40;;;10.10;70.60;;;;;;4997888;28;114576;-87
2023/05/04 06:03:23;;;;;;;47.28;33.70;;;10.20;70.30;;;;;;5017628;28;114646;-85
2023/05/04 06:05:50;;;;;;;45.00;31.50;;;10.50;70.30;;;;;;4984679;28;118500;-86
2023/05/04 06:08:17;;;;;;;40.53;30.52;;;10.80;70.20;;;;;;5017800;28;114684;-86
2023/05/04 06:10:45;;;;;;;47.15;31.55;;;11.30;69.60;;;;;;5017199;27;114402;-86
2023/05/04 06:13:12;;;;;;;45.55;31.63;;;11.80;68.50;;;;;;5017818;28;114595;-87
2023/05/04 06:15:40;;;;;;;43.28;31.80;;;12.20;67.10;;;;;;4965737;28;118450;-86
2023/05/04 06:18:07;;;;;;;47.50;32.22;;;12.50;65.90;;;;;;4975341;28;117689;-87
2023/05/04 06:20:35;;;;;;;48.35;31.77;;;12.80;65.10;;;;;;4999326;28;118342;-87
2023/05/04 06:23:02;;;;;;;45.17;33.45;;;13.10;64.60;;;;;;5018045;28;114461;-86
2023/05/04 06:25:30;;;;;;;46.10;33.50;;;13.20;63.60;;;;;;5000732;28;114830;-86
2023/05/04 06:27:58;;;;;;;53.08;35.70;;;13.40;63.40;;;;;;5016681;28;114647;-86
2023/05/04 06:30:25;;;;;;;51.00;36.95;;;13.30;63.10;;;;;;4983966;28;114470;-87
2023/05/04 06:32:52;;;;;;;55.78;37.83;;;13.30;62.90;;;;;;5017767;28;114501;-86
2023/05/04 06:35:20;;;;;;;50.22;37.35;;;13.40;63.00;;;;;;4999881;28;115440;-86
2023/05/04 06:37:47;;;;;;;48.35;35.03;;;13.40;62.80;;;;;;4993713;28;115011;-86
2023/05/04 06:40:15;;;;;;;49.65;34.50;;;13.50;62.80;;;;;;5002208;28;114376;-86
2023/05/04 06:42:42;;;;;;;49.92;35.65;;;13.50;62.50;;;;;;5000155;28;114488;-86
2023/05/04 06:45:09;;;;;;;53.03;39.45;;;13.40;62.50;;;;;;5015951;28;114969;-86
2023/05/04 06:47:37;;;;;;;53.75;39.38;;;13.40;62.50;;;;;;5000282;28;114604;-87
2023/05/04 06:50:09;;;;;;;50.20;37.33;;;13.40;62.20;;;;;;5002023;28;114371;-87
2023/05/04 06:52:41;;;;;;;43.33;33.03;;;13.30;62.40;;;;;;5003436;28;115813;-86
2023/05/04 06:55:10;;;;;;;39.53;29.73;;;13.40;62.70;;;;;;5004184;28;117994;-86
2023/05/04 06:57:37;;;;;;;41.33;32.22;;;13.50;62.80;;;;;;4986869;28;118265;-87
2023/05/04 07:00:07;;;;;;;39.38;31.20;;;13.60;61.90;;;;;;5017735;28;116183;-87
2023/05/04 07:02:34;;;;;;;38.35;30.27;;;13.60;61.60;;;;;;4987303;28;114837;-87
2023/05/04 07:05:02;;;;;;;40.65;31.95;;;13.60;61.90;;;;;;4981121;28;114470;-88
2023/05/04 07:07:29;;;;;;;42.17;31.40;;;13.70;61.70;;;;;;5008349;28;117646;-87
2023/05/04 07:09:58;;;;;;;39.53;30.98;;;13.70;61.60;;;;;;5006290;28;114504;-87
2023/05/04 07:12:25;;;;;;;42.85;31.23;;;13.80;61.60;;;;;;5016742;28;114460;-87
2023/05/04 07:14:52;;;;;;;44.30;32.03;;;13.80;61.80;;;;;;4983453;28;117493;-86
2023/05/04 07:17:20;;;;;;;39.10;28.42;;;13.90;61.40;;;;;;4983539;28;116319;-86
2023/05/04 07:19:51;;;;;;;38.33;29.42;;;13.90;60.70;;;;;;5000814;28;114242;-87
2023/05/04 07:22:19;;;;;;;34.95;28.20;;;14.00;60.40;;;;;;4983449;28;114545;-87
2023/05/04 07:24:47;;;;;;;39.80;29.13;;;14.10;60.20;;;;;;5018136;28;115339;-85
2023/05/04 07:27:15;;;;;;;36.33;28.08;;;14.20;59.60;;;;;;5025517;28;114293;-86
2023/05/04 07:29:43;;;;;;;34.50;26.58;;;14.20;59.80;;;;;;5011199;28;114515;-87
2023/05/04 07:32:10;;;;;;;37.60;29.23;;;14.30;58.50;;;;;;5019713;28;115238;-86
2023/05/04 07:34:38;;;;;;;33.63;26.52;;;14.20;58.30;;;;;;4999405;28;115061;-86
2023/05/04 07:37:12;;;;;;;34.55;26.10;;;13.90;59.10;;;;;;4999485;28;118450;-87
2023/05/04 07:39:39;;;;;;;35.63;26.90;;;13.90;59.10;;;;;;4973636;28;116166;-87
2023/05/04 07:42:10;;;;;;;38.03;27.60;;;14.10;59.70;;;;;;5000621;28;114367;-87
2023/05/04 07:44:37;;;;;;;36.28;26.67;;;14.30;59.10;;;;;;4980728;28;119087;-87
2023/05/04 07:47:05;;;;;;;41.60;28.63;;;14.50;58.90;;;;;;4998498;28;114985;-87
2023/05/04 07:49:32;;;;;;;37.78;28.48;;;14.60;57.90;;;;;;4968193;28;114423;-86
2023/05/04 07:51:59;;;;;;;41.42;29.42;;;14.40;58.30;;;;;;5017097;28;114709;-86
2023/05/04 07:54:28;;;;;;;37.88;28.80;;;14.30;58.30;;;;;;4983552;28;116819;-87
2023/05/04 07:56:55;;;;;;;40.55;26.80;;;14.20;58.40;;;;;;5016579;28;114646;-88
2023/05/04 07:59:23;;;;;;;37.10;28.02;;;14.20;58.70;;;;;;5016450;28;114497;-88
2023/05/04 08:01:50;;;;;;;34.85;26.95;;;14.30;58.60;;;;;;5003571;28;114489;-86
2023/05/04 08:04:17;;;;;;;36.55;27.13;;;14.30;58.10;;;;;;5022473;28;115730;-87
2023/05/04 08:06:45;;;;;;;35.63;26.17;;;14.20;57.40;;;;;;5002885;28;114718;-88
2023/05/04 08:09:12;;;;;;;31.10;24.70;;;14.10;57.90;;;;;;5000989;28;114537;-87
2023/05/04 08:11:39;;;;;;;38.03;27.33;;;14.10;58.20;;;;;;5017471;28;114681;-87
2023/05/04 08:14:07;;;;;;;34.58;26.05;;;14.10;57.90;;;;;;4982755;28;117063;-86
2023/05/04 08:16:35;;;;;;;33.05;25.67;;;14.20;58.30;;;;;;4966297;28;117487;-86
2023/05/04 08:19:04;;;;;;;29.58;23.73;;;14.30;57.80;;;;;;5000312;28;114385;-86
2023/05/04 08:21:31;;;;;;;34.15;24.95;;;14.50;57.30;;;;;;4991952;28;114633;-86
2023/05/04 08:23:59;;;;;;;32.05;23.00;;;14.50;57.00;;;;;;4980955;28;114929;-87
2023/05/04 08:26:26;;;;;;;27.35;21.00;;;14.70;57.20;;;;;;4983081;28;119209;-86
2023/05/04 08:29:04;;;;;;;28.25;23.27;;;14.80;55.70;;;;;;4997812;28;114557;-88
2023/05/04 08:31:32;;;;;;;24.17;19.48;;;14.80;55.70;;;;;;5000511;28;114708;-87
2023/05/04 08:34:02;;;;;;;24.52;18.80;;;14.80;54.40;;;;;;5016282;27;115376;-87
2023/05/04 08:36:31;;;;;;;20.65;16.58;;;14.70;53.60;;;;;;5023638;28;115133;-85
2023/05/04 08:38:58;;;;;;;21.38;15.82;;;14.50;52.30;;;;;;5020309;28;114461;-85
2023/05/04 08:41:25;;;;;;;21.08;15.73;;;14.20;52.70;;;;;;4987522;28;114575;-86
2023/05/04 08:43:53;;;;;;;16.70;13.75;;;14.10;52.10;;;;;;5019682;28;114957;-86
2023/05/04 08:46:21;;;;;;;18.83;14.90;;;13.90;51.50;;;;;;5002805;28;114702;-87
2023/05/04 08:48:50;;;;;;;18.77;14.05;;;13.80;51.80;;;;;;5019856;28;115197;-88
2023/05/04 08:51:17;;;;;;;17.85;13.20;;;13.70;51.70;;;;;;5019296;28;114371;-86
2023/05/04 08:53:45;;;;;;;19.67;14.15;;;13.60;51.80;;;;;;5002126;28;115700;-86
2023/05/04 08:56:12;;;;;;;15.05;12.07;;;13.60;51.80;;;;;;4985724;28;118062;-87
2023/05/04 08:58:49;;;;;;;17.35;13.25;;;13.70;51.10;;;;;;5002735;28;114312;-87
2023/05/04 09:01:17;;;;;;;17.20;13.70;;;13.70;51.00;;;;;;5002567;28;114687;-87
2023/05/04 09:03:46;;;;;;;19.27;14.45;;;13.70;51.00;;;;;;5002497;28;115258;-87
2023/05/04 09:06:13;;;;;;;18.98;14.40;;;13.80;51.90;;;;;;5018230;28;115124;-87
2023/05/04 09:08:41;;;;;;;16.77;13.50;;;13.90;51.50;;;;;;5001109;28;114496;-87
2023/05/04 09:11:08;;;;;;;16.17;13.00;;;13.90;50.80;;;;;;5002314;28;114281;-89
2023/05/04 09:13:35;;;;;;;16.80;12.18;;;13.80;50.40;;;;;;4983449;28;115859;-87
2023/05/04 09:16:03;;;;;;;16.48;11.70;;;13.70;51.00;;;;;;4967583;28;118180;-86
2023/05/04 09:18:36;;;;;;;15.35;12.07;;;13.70;50.80;;;;;;5017781;28;114489;-88
2023/05/04 09:21:04;;;;;;;13.93;11.50;;;13.70;50.10;;;;;;5001668;28;114542;-88
2023/05/04 09:23:32;;;;;;;15.30;11.10;;;13.70;50.70;;;;;;5017207;28;116022;-87
2023/05/04 09:25:59;;;;;;;17.15;11.85;;;13.80;49.80;;;;;;4999718;28;116348;-87
2023/05/04 09:28:38;;;;;;;17.65;12.10;;;14.00;49.20;;;;;;5007119;28;114392;-85
2023/05/04 09:31:06;;;;;;;17.73;13.18;;;14.20;49.30;;;;;;5016183;28;114218;-84
2023/05/04 09:33:33;;;;;;;16.67;12.30;;;14.20;49.40;;;;;;5011128;28;114256;-87
2023/05/04 09:36:15;;;;;;;14.80;11.43;;;14.20;49.20;;;;;;4990785;28;115037;-85
2023/05/04 09:38:43;;;;;;;14.10;11.30;;;14.10;48.90;;;;;;5020730;28;114544;-87
2023/05/04 09:41:10;;;;;;;15.32;11.05;;;13.90;49.10;;;;;;5020828;28;114522;-85
2023/05/04 09:43:42;;;;;;;13.98;10.98;;;13.80;49.70;;;;;;5001867;28;115445;-87
2023/05/04 09:46:17;;;;;;;13.13;10.75;;;14.00;49.70;;;;;;5017689;27;115202;-88
2023/05/04 09:48:53;;;;;;;17.58;11.05;;;14.10;49.40;;;;;;4954387;28;115244;-86
2023/05/04 09:51:28;;;;;;;12.98;10.00;;;14.20;48.80;;;;;;5019032;28;114304;-87
2023/05/04 09:53:57;;;;;;;14.13;10.77;;;14.20;48.60;;;;;;4989796;28;118536;-86
2023/05/04 09:56:26;;;;;;;12.57;9.38;;;14.10;48.20;;;;;;5019794;28;114347;-87
2023/05/04 09:58:57;;;;;;;12.95;10.00;;;14.10;47.70;;;;;;5001193;28;114619;-87
2023/05/04 10:01:29;;;;;;;11.48;9.27;;;14.10;47.70;;;;;;5018383;28;114531;-86
2023/05/04 10:03:56;;;;;;;12.57;10.18;;;14.20;48.30;;;;;;5017002;28;114854;-87
2023/05/04 10:06:26;;;;;;;10.80;9.02;;;14.30;47.20;;;;;;5016744;28;114865;-87
2023/05/04 10:08:55;;;;;;;12.52;8.93;;;14.40;46.80;;;;;;4985038;28;115781;-86
2023/05/04 10:11:24;;;;;;;12.82;8.55;;;14.40;46.90;;;;;;5001937;28;114481;-88
2023/05/04 10:13:54;;;;;;;12.90;9.43;;;14.50;47.10;;;;;;4967608;28;118936;-88
2023/05/04 10:16:44;;;;;;;11.70;8.15;;;14.60;46.50;;;;;;5000900;28;116454;-87
2023/05/04 10:19:36;;;;;;;11.20;7.32;;;14.70;46.40;;;;;;4984996;28;114706;-88
2023/05/04 10:22:11;;;;;;;11.65;7.80;;;14.70;45.50;;;;;;5015897;28;114387;-87
2023/05/04 10:24:57;;;;;;;10.88;7.93;;;14.80;46.30;;;;;;5015896;28;114915;-86
2023/05/04 10:27:56;;;;;;;13.23;9.07;;;15.00;45.70;;;;;;4999516;28;118294;-86
2023/05/04 10:30:23;;;;;;;11.20;8.52;;;15.20;45.10;;;;;;4994737;28;114683;-87
2023/05/04 10:32:57;;;;;;;10.98;7.93;;;15.00;45.20;;;;;;5010896;28;114509;-87
2023/05/04 10:35:26;;;;;;;11.80;8.50;;;15.10;45.30;;;;;;5017215;28;114536;-88
2023/05/04 10:37:54;;;;;;;11.35;8.10;;;15.20;45.00;;;;;;5017878;28;115182;-87
2023/05/04 10:40:37;;;;;;;11.48;7.90;;;15.20;44.60;;;;;;5017901;28;114824;-87
2023/05/04 10:43:09;;;;;;;12.57;7.53;;;15.20;44.70;;;;;;5002792;28;114732;-86
2023/05/04 10:45:40;;;;;;;10.25;7.13;;;15.20;43.80;;;;;;4983624;28;115382;-87
2023/05/04 10:48:08;;;;;;;9.77;7.20;;;15.10;43.80;;;;;;5000353;28;118143;-87
2023/05/04 10:50:46;;;;;;;11.57;7.50;;;15.10;43.80;;;;;;4978185;28;114323;-88
2023/05/04 10:53:14;;;;;;;13.43;8.00;;;15.10;43.80;;;;;;4984560;28;114482;-87
2023/05/04 10:55:47;;;;;;;10.10;7.47;;;15.10;43.90;;;;;;5000139;28;115382;-86
2023/05/04 10:58:17;;;;;;;10.18;7.55;;;15.20;43.50;;;;;;4978794;28;118342;-86
2023/05/04 11:00:46;;;;;;;9.63;7.00;;;15.10;43.00;;;;;;5001543;28;115537;-87
2023/05/04 11:03:14;;;;;;;10.15;6.88;;;14.90;43.20;;;;;;5001017;28;114369;-86
2023/05/04 11:05:42;;;;;;;9.40;6.45;;;14.90;43.40;;;;;;4983526;28;117934;-87
2023/05/04 11:08:19;;;;;;;9.80;7.30;;;14.90;42.70;;;;;;4989862;28;114669;-86
2023/05/04 11:10:47;;;;;;;9.88;7.38;;;14.80;42.70;;;;;;4983479;28;114420;-87
2023/05/04 11:13:15;;;;;;;10.68;6.20;;;14.80;42.90;;;;;;5016774;28;114492;-85
2023/05/04 11:15:52;;;;;;;8.45;6.45;;;14.80;42.70;;;;;;4982662;28;115756;-86
2023/05/04 11:18:30;;;;;;;8.95;6.43;;;14.90;42.80;;;;;;5000387;28;115185;-86
2023/05/04 11:20:58;;;;;;;10.10;7.10;;;15.00;42.20;;;;;;4995242;28;114278;-86
2023/05/04 11:23:26;;;;;;;10.85;6.57;;;14.90;42.10;;;;;;4966230;28;114493;-86
2023/05/04 11:25:53;;;;;;;10.45;6.70;;;14.90;42.40;;;;;;4998900;28;115223;-87
2023/05/04 11:28:39;;;;;;;11.43;6.90;;;14.90;42.30;;;;;;4999648;28;117475;-87
2023/05/04 11:31:13;;;;;;;9.93;6.40;;;14.90;42.20;;;;;;5014823;28;114583;-88
2023/05/04 11:33:58;;;;;;;8.57;6.00;;;14.90;42.10;;;;;;4994144;28;114400;-87
2023/05/04 11:36:27;;;;;;;8.95;6.15;;;15.00;41.90;;;;;;5016566;28;115360;-88
2023/05/04 11:38:57;;;;;;;7.93;6.00;;;14.90;41.70;;;;;;4994989;28;114698;-87
2023/05/04 11:41:44;;;;;;;10.25;6.03;;;14.90;41.50;;;;;;5012122;28;114207;-86
2023/05/04 11:44:12;;;;;;;8.98;5.88;;;15.00;41.30;;;;;;4996636;28;114403;-86
2023/05/04 11:46:39;;;;;;;6.85;5.65;;;14.90;41.10;;;;;;4935161;28;117264;-85
2023/05/04 11:49:06;;;;;;;8.75;5.60;;;15.00;41.00;;;;;;4931135;28;117646;-86
2023/05/04 11:51:34;;;;;;;10.50;5.75;;;15.00;41.40;;;;;;4958875;28;114592;-87
2023/05/04 11:54:02;;;;;;;9.27;5.65;;;15.00;40.80;;;;;;4945643;28;114780;-87
2023/05/04 11:56:39;;;;;;;7.90;5.18;;;15.00;40.50;;;;;;4959125;28;115690;-86
2023/05/04 11:59:09;;;;;;;8.43;4.78;;;15.00;40.20;;;;;;4923907;28;117435;-86
2023/05/04 12:01:37;;;;;;;6.93;4.80;;;15.00;39.90;;;;;;4930969;28;114573;-88
2023/05/04 12:04:05;;;;;;;13.07;5.80;;;15.20;40.00;;;;;;4944743;28;114452;-88
2023/05/04 12:06:32;;;;;;;11.05;5.85;;;15.20;40.00;;;;;;4977611;28;114944;-87
2023/05/04 12:09:04;;;;;;;8.00;5.88;;;15.20;39.80;;;;;;4963196;28;115926;-88
2023/05/04 12:11:33;;;;;;;8.38;5.65;;;15.20;39.70;;;;;;4981790;28;114581;-86
2023/05/04 12:14:05;;;;;;;12.93;5.45;;;15.20;39.70;;;;;;4965448;28;114717;-86
2023/05/04 12:16:32;;;;;;;7.13;5.35;;;15.30;39.60;;;;;;4970096;28;117779;-88
2023/05/04 12:19:04;;;;;;;8.65;5.95;;;15.20;39.20;;;;;;5004063;28;115211;-88
2023/05/04 12:21:32;;;;;;;7.85;5.40;;;15.20;38.90;;;;;;4967378;28;115989;-88
2023/05/04 12:23:59;;;;;;;8.18;5.38;;;15.10;39.60;;;;;;4966660;28;114714;-87
2023/05/04 12:26:27;;;;;;;7.40;5.05;;;15.20;39.00;;;;;;4951606;28;116404;-89
2023/05/04 12:28:55;;;;;;;7.78;5.22;;;15.20;38.40;;;;;;4981252;28;117493;-88
2023/05/04 12:31:24;;;;;;;9.52;6.00;;;15.20;39.30;;;;;;4968937;28;114423;-87
2023/05/04 12:33:51;;;;;;;8.75;5.93;;;15.40;39.20;;;;;;4994987;28;114312;-87